Time;durP1;ratioP1;P1;durP2;ratioP2;P2;SDS_P1;SDS_P2;PMS_P1;PMS_P2;Temp;Humidity;BMP_temperature;BMP_pressure;BME280_temperature;BME280_humidity;BME280_pressure;Samples;Min_cycle;Max_cycle;Signal;HPM_P1;HPM_P2
2022/07/14 00:01:45;;;;;;;;;21.00;19.00;;;;;27.14;38.55;101311.50;5072331;28;45081;-84
2022/07/14 00:04:11;;;;;;;;;1.50;0.00;;;;;27.39;38.71;101349.56;5073125;27;45077;-83
2022/07/14 00:06:36;;;;;;;;;14.50;13.75;;;;;27.38;38.67;101354.97;5091181;28;45995;-84
2022/07/14 00:09:02;;;;;;;;;19.00;18.25;;;;;27.19;39.01;101324.84;5091222;28;45166;-83
2022/07/14 00:11:27;;;;;;;;;17.75;16.25;;;;;27.22;39.12;101333.75;5091280;28;45232;-84
2022/07/14 00:13:53;;;;;;;;;18.25;17.00;;;;;27.23;38.80;101342.75;5091163;28;44891;-86
2022/07/14 00:16:18;;;;;;;;;19.00;17.25;;;;;27.31;39.12;101358.75;5091114;27;45083;-83
2022/07/14 00:18:44;;;;;;;;;17.00;16.50;;;;;27.12;39.14;101329.53;5090411;27;45018;-83
2022/07/14 00:21:13;;;;;;;;;18.00;18.00;;;;;27.15;38.73;101331.28;5090869;28;45001;-85
2022/07/14 00:23:40;;;;;;;;;21.00;20.50;;;;;27.03;38.94;101313.50;5072789;28;45397;-83
2022/07/14 00:26:06;;;;;;;;;16.50;15.50;;;;;27.17;38.94;101346.50;5090615;28;45982;-82
2022/07/14 00:28:32;;;;;;;;;20.50;18.25;;;;;27.04;39.66;101322.50;5091034;28;45095;-84
2022/07/14 00:31:03;;;;;;;;;18.00;18.00;;;;;27.13;39.76;101339.38;5094086;27;45022;-83
2022/07/14 00:33:30;;;;;;;;;20.25;19.00;;;;;27.00;40.45;101303.69;5094237;28;44939;-84
2022/07/14 00:35:55;;;;;;;;;20.75;19.00;;;;;26.81;39.90;101275.41;5094788;28;45608;-85
2022/07/14 00:38:20;;;;;;;;;19.25;18.25;;;;;26.99;40.26;101326.22;5094238;28;45000;-86
2022/07/14 00:40:45;;;;;;;;;19.75;18.75;;;;;26.72;40.93;101289.97;5094453;28;44987;-85
2022/07/14 00:43:11;;;;;;;;;19.75;19.50;;;;;26.75;41.48;101298.00;5094472;28;45060;-83
2022/07/14 00:45:36;;;;;;;;;24.50;22.50;;;;;26.69;41.08;101298.13;5076485;28;47091;-84
2022/07/14 00:48:01;;;;;;;;;24.00;22.75;;;;;26.79;40.51;101323.06;5093273;27;45144;-84
2022/07/14 00:50:27;;;;;;;;;21.25;19.25;;;;;26.68;40.51;101290.09;5094137;28;44989;-85
2022/07/14 00:52:52;;;;;;;;;20.25;19.25;;;;;26.64;40.82;101281.16;5076014;28;45113;-84
2022/07/14 00:55:18;;;;;;;;;16.00;15.75;;;;;26.70;40.47;101285.56;5093874;27;45769;-84
2022/07/14 00:57:43;;;;;;;;;18.50;17.25;;;;;26.75;40.06;101291.75;5094386;28;45092;-85
2022/07/14 01:00:14;;;;;;;;;17.50;17.25;;;;;26.86;40.35;101316.63;5094279;28;45077;-84
2022/07/14 01:02:41;;;;;;;;;16.50;15.50;;;;;26.79;39.95;101309.59;5093391;28;44993;-85
2022/07/14 01:05:07;;;;;;;;;15.25;14.25;;;;;26.86;40.05;101326.53;5093899;28;45805;-83
2022/07/14 01:07:32;;;;;;;;;15.00;14.75;;;;;26.74;40.74;101311.50;5093924;28;45188;-85
2022/07/14 01:09:58;;;;;;;;;16.25;15.50;;;;;26.78;40.87;101325.81;5094028;28;45205;-83
2022/07/14 01:12:24;;;;;;;;;16.75;15.75;;;;;26.79;41.16;101327.59;5093183;28;45128;-85
2022/07/14 01:14:49;;;;;;;;;18.75;18.75;;;;;26.70;42.08;101326.03;5093911;28;45776;-84
2022/07/14 01:17:15;;;;;;;;;17.00;17.00;;;;;26.56;41.21;101304.75;5074971;28;44937;-85
2022/07/14 01:19:40;;;;;;;;;18.50;17.00;;;;;26.40;41.26;101281.69;5093586;27;44864;-83
2022/07/14 01:22:06;;;;;;;;;18.50;18.50;;;;;26.56;41.25;101317.34;5094072;28;44885;-84
2022/07/14 01:24:33;;;;;;;;;17.50;16.00;;;;;26.53;40.80;101312.91;5093962;28;45388;-85
2022/07/14 01:26:59;;;;;;;;;16.50;16.00;;;;;26.40;41.27;101301.47;5075231;28;45465;-84
2022/07/14 01:29:24;;;;;;;;;17.00;15.75;;;;;26.49;41.01;101322.84;5093632;28;45038;-85
2022/07/14 01:31:50;;;;;;;;;15.50;15.00;;;;;26.29;41.06;101292.72;5093197;27;45003;-84
2022/07/14 01:34:15;;;;;;;;;16.75;16.00;;;;;26.37;41.53;101320.41;5093702;28;45575;-85
2022/07/14 01:36:40;;;;;;;;;16.50;15.50;;;;;26.21;40.91;101300.09;5093571;28;45116;-85
2022/07/14 01:39:06;;;;;;;;;19.00;17.75;;;;;26.17;41.90;101306.47;5092086;28;45181;-85
2022/07/14 01:41:32;;;;;;;;;19.25;17.25;;;;;26.22;41.68;101312.66;5073945;28;45082;-83
2022/07/14 01:43:58;;;;;;;;;15.25;14.50;;;;;26.19;42.29;101318.97;5093154;27;45384;-83
2022/07/14 01:46:24;;;;;;;;;15.75;15.00;;;;;26.26;42.18;101330.53;5093279;28;45127;-83
2022/07/14 01:48:49;;;;;;;;;17.75;17.25;;;;;26.16;42.31;101324.44;5093193;27;44953;-85
2022/07/14 01:51:15;;;;;;;;;18.25;17.75;;;;;26.01;42.14;101305.00;5093738;28;44931;-84
2022/07/14 01:53:41;;;;;;;;;16.25;15.50;;;;;26.11;42.30;101323.66;5093441;28;45761;-84
2022/07/14 01:56:07;;;;;;;;;17.25;16.75;;;;;25.84;42.76;101290.06;5091884;27;45251;-85
2022/07/14 01:58:33;;;;;;;;;19.75;18.50;;;;;25.72;42.19;101275.00;5093179;28;45103;-84
2022/07/14 02:03:44;;;;;;;;;19.75;19.00;;;;;25.91;42.95;101305.19;5093017;27;45386;-84
2022/07/14 02:06:10;;;;;;;;;21.25;19.50;;;;;25.91;42.55;101306.97;5074833;28;45551;-83
2022/07/14 02:08:35;;;;;;;;;21.25;21.00;;;;;25.95;42.71;101296.13;5091765;28;44973;-83
2022/07/14 02:13:44;;;;;;;;;16.00;15.25;;;;;26.05;42.75;101315.69;5093052;28;45505;-84
2022/07/14 02:16:10;;;;;;;;;16.75;10.50;;;;;25.96;42.31;101297.00;5092637;28;44954;-85
2022/07/14 02:18:35;;;;;;;;;18.75;18.25;;;;;25.95;42.73;101303.31;5091411;27;45139;-82
2022/07/14 02:21:01;;;;;;;;;18.75;16.75;;;;;25.61;43.60;101247.38;5074572;28;45547;-84
2022/07/14 02:23:26;;;;;;;;;17.50;15.75;;;;;25.73;42.79;101284.84;5091453;28;47362;-84
2022/07/14 02:25:51;;;;;;;;;17.00;15.00;;;;;25.66;43.45;101267.03;5092974;28;48676;-84
2022/07/14 02:28:17;;;;;;;;;14.75;14.75;;;;;25.74;42.80;101292.00;5092846;28;44958;-83
2022/07/14 02:30:43;;;;;;;;;15.50;15.25;;;;;25.64;43.27;101276.97;5093058;28;45123;-83
2022/07/14 02:33:09;;;;;;;;;12.50;12.50;;;;;25.67;42.76;101293.06;5091976;28;45323;-84
2022/07/14 02:35:35;;;;;;;;;12.25;12.25;;;;;25.65;43.05;101281.41;5093198;28;45089;-85
2022/07/14 02:38:00;;;;;;;;;12.00;12.00;;;;;25.64;43.04;101282.34;5093096;28;45247;-84
2022/07/14 02:40:26;;;;;;;;;10.50;10.25;;;;;25.54;43.13;101259.22;5092890;27;45061;-84
2022/07/14 02:42:51;;;;;;;;;11.00;11.00;;;;;25.39;43.18;101252.31;5092534;28;45206;-83
2022/07/14 02:45:17;;;;;;;;;10.00;10.00;;;;;25.38;42.92;101252.34;5092690;27;45036;-83
2022/07/14 02:47:43;;;;;;;;;11.00;10.00;;;;;25.38;42.98;101257.72;5073642;28;45158;-83
2022/07/14 02:50:09;;;;;;;;;10.25;9.75;;;;;25.19;43.28;101225.75;5093096;28;45099;-84
2022/07/14 02:52:34;;;;;;;;;9.00;9.00;;;;;25.40;43.09;101269.34;5091647;27;45804;-85
2022/07/14 02:55:00;;;;;;;;;12.00;11.50;;;;;25.34;43.21;101264.06;5073739;28;45207;-84
2022/07/14 02:57:25;;;;;;;;;10.00;9.50;;;;;25.20;42.25;101246.38;5092579;28;45025;-83
2022/07/14 02:59:50;;;;;;;;;8.75;7.00;;;;;25.38;42.03;101265.81;5093009;28;45040;-84
2022/07/14 03:02:16;;;;;;;;;7.50;7.50;;;;;25.30;41.82;101246.22;5091675;28;45229;-84
2022/07/14 03:04:41;;;;;;;;;8.00;8.00;;;;;25.63;41.41;101293.16;5092771;28;45252;-84
2022/07/14 03:07:06;;;;;;;;;8.50;7.00;;;;;25.56;42.69;101275.31;5092551;28;45204;-83
2022/07/14 03:09:32;;;;;;;;;6.75;6.75;;;;;25.55;42.13;101278.94;5090839;28;45194;-83
2022/07/14 03:11:57;;;;;;;;;8.00;7.25;;;;;25.50;42.95;101273.63;5092172;28;45193;-86
2022/07/14 03:14:22;;;;;;;;;8.25;8.00;;;;;25.56;42.47;101289.66;5092306;28;47158;-84
2022/07/14 03:16:48;;;;;;;;;7.25;7.25;;;;;25.41;42.56;101271.09;5091183;28;45095;-85
2022/07/14 03:19:13;;;;;;;;;8.50;7.75;;;;;25.37;42.78;101280.16;5074371;28;45286;-84
2022/07/14 03:21:39;;;;;;;;;4.50;4.50;;;;;25.30;42.39;101276.69;5092000;28;45974;-83
2022/07/14 03:24:05;;;;;;;;;8.00;6.50;;;;;25.05;43.25;101241.22;5092098;27;45041;-83
2022/07/14 03:26:31;;;;;;;;;8.00;8.00;;;;;25.22;44.04;101265.16;5073971;28;45286;-83
2022/07/14 03:28:56;;;;;;;;;8.50;7.00;;;;;25.23;42.14;101266.09;5091706;28;46552;-83
2022/07/14 03:31:21;;;;;;;;;7.50;5.75;;;;;25.25;42.77;101269.63;5091584;28;45844;-84
2022/07/14 03:33:46;;;;;;;;;5.75;5.25;;;;;25.30;42.15;101273.13;5091757;27;44940;-83
2022/07/14 03:36:12;;;;;;;;;5.00;5.00;;;;;25.21;42.67;101255.31;5091396;28;45187;-84
2022/07/14 03:38:37;;;;;;;;;5.25;5.25;;;;;25.36;42.44;101275.69;5073409;27;45138;-84
2022/07/14 03:41:03;;;;;;;;;4.25;4.00;;;;;25.25;42.65;101270.50;5092116;27;46067;-83
2022/07/14 03:43:29;;;;;;;;;7.00;7.00;;;;;25.18;43.01;101256.28;5090802;28;45092;-83
2022/07/14 03:45:55;;;;;;;;;11.00;9.00;;;;;25.20;42.46;101269.69;5090864;27;45010;-83
2022/07/14 03:48:21;;;;;;;;;8.25;7.75;;;;;25.09;42.96;101247.47;5073056;28;45326;-84
2022/07/14 03:50:47;;;;;;;;;7.25;7.25;;;;;25.22;42.82;101273.22;5091639;28;45821;-83
2022/07/14 03:53:12;;;;;;;;;6.50;6.50;;;;;25.16;42.75;101268.84;5091170;28;45107;-85
2022/07/14 03:55:37;;;;;;;;;8.75;8.00;;;;;25.21;43.40;101266.09;5091776;28;44911;-85
2022/07/14 03:58:03;;;;;;;;;8.00;7.50;;;;;25.06;44.01;101244.81;5073096;28;45395;-85
2022/07/14 04:00:28;;;;;;;;;7.00;7.00;;;;;25.03;43.21;101248.44;5091678;28;45702;-85
2022/07/14 04:02:54;;;;;;;;;7.00;7.00;;;;;25.08;44.16;101270.81;5090760;27;45071;-84
2022/07/14 04:05:20;;;;;;;;;8.25;8.25;;;;;25.02;43.80;101257.41;5090979;28;44940;-84
2022/07/14 04:07:45;;;;;;;;;6.50;6.50;;;;;25.03;43.55;101264.59;5090169;28;45118;-85
2022/07/14 04:10:10;;;;;;;;;9.00;8.25;;;;;25.04;43.98;101274.41;5071698;28;47140;-83
2022/07/14 04:12:36;;;;;;;;;8.00;7.00;;;;;24.92;43.94;101258.47;5072950;28;45034;-83
2022/07/14 04:15:01;;;;;;;;;8.75;7.50;;;;;24.98;44.50;101281.72;5091735;28;45153;-84
2022/07/14 04:17:26;;;;;;;;;10.25;8.25;;;;;25.00;44.15;101296.00;5072060;28;45089;-84
2022/07/14 04:19:52;;;;;;;;;8.50;8.50;;;;;24.91;44.86;101273.72;5072860;28;48917;-83
2022/07/14 04:22:17;;;;;;;;;7.00;7.00;;;;;24.87;45.10;101292.63;5073008;28;45405;-84
2022/07/14 04:24:42;;;;;;;;;6.25;5.25;;;;;24.71;44.60;101265.09;5090846;28;45103;-83
2022/07/14 04:27:08;;;;;;;;;7.75;7.50;;;;;24.84;45.20;101287.31;5091113;27;45096;-83
2022/07/14 04:29:33;;;;;;;;;7.00;7.00;;;;;24.83;44.33;101272.97;5071232;28;47094;-83
2022/07/14 04:31:58;;;;;;;;;6.75;6.50;;;;;24.77;44.57;101269.47;5071747;28;48782;-84
2022/07/14 04:34:24;;;;;;;;;6.50;6.50;;;;;24.85;44.99;101289.06;5072890;28;45043;-84
2022/07/14 04:36:49;;;;;;;;;6.50;6.00;;;;;24.73;45.07;101282.09;5090961;28;44977;-84
2022/07/14 04:39:14;;;;;;;;;9.25;9.25;;;;;24.75;44.58;101292.81;5072368;28;47092;-83
2022/07/14 04:41:40;;;;;;;;;6.50;6.50;;;;;24.76;45.13;101291.91;5089997;28;45046;-83
2022/07/14 04:44:05;;;;;;;;;11.25;9.00;;;;;24.62;45.51;101276.84;5072710;28;45306;-85
2022/07/14 04:46:31;;;;;;;;;11.50;11.00;;;;;24.50;45.85;101250.19;5090270;28;45241;-83
2022/07/14 04:54:24;;;;;;;;;9.25;8.50;;;;;24.66;45.98;101273.22;5090964;28;45056;-86
2022/07/14 04:56:50;;;;;;;;;9.00;7.75;;;;;24.69;46.17;101277.69;5090905;27;45059;-83
2022/07/14 04:59:15;;;;;;;;;9.00;8.00;;;;;24.82;45.51;101303.44;5091027;28;45337;-83
2022/07/14 05:01:40;;;;;;;;;8.50;8.00;;;;;24.85;45.80;101300.72;5071810;28;45109;-83
2022/07/14 05:04:06;;;;;;;;;8.75;8.75;;;;;24.90;45.49;101308.72;5090548;28;44984;-84
2022/07/14 05:06:31;;;;;;;;;11.50;11.25;;;;;24.82;46.21;101286.44;5072022;28;45083;-84
2022/07/14 05:08:56;;;;;;;;;7.75;7.00;;;;;24.82;45.59;101283.72;5071019;28;47905;-84
2022/07/14 05:11:22;;;;;;;;;10.25;9.50;;;;;24.94;46.28;101303.28;5090365;28;44909;-84
2022/07/14 05:13:47;;;;;;;;;9.00;8.00;;;;;24.76;45.91;101281.16;5089355;28;45173;-84
2022/07/14 05:16:12;;;;;;;;;7.75;7.25;;;;;24.84;45.42;101288.19;5073273;28;45183;-84
2022/07/14 05:18:38;;;;;;;;;8.00;7.50;;;;;24.68;46.55;101267.84;5093883;28;46036;-85
2022/07/14 05:21:03;;;;;;;;;9.25;8.50;;;;;24.77;46.38;101282.91;5075459;28;44980;-84
2022/07/14 05:23:28;;;;;;;;;8.25;8.25;;;;;24.74;45.99;101272.22;5092308;28;46590;-84
2022/07/14 05:25:54;;;;;;;;;8.00;7.00;;;;;24.66;46.20;101259.78;5075669;28;45171;-83
2022/07/14 05:28:19;;;;;;;;;7.00;6.75;;;;;24.84;46.77;101300.75;5075060;28;46034;-85
2022/07/14 05:30:45;;;;;;;;;9.50;8.75;;;;;24.79;46.18;101282.00;5093628;28;45073;-83
2022/07/14 05:33:10;;;;;;;;;8.00;8.00;;;;;24.59;46.49;101244.66;5093487;28;45033;-84
2022/07/14 05:35:35;;;;;;;;;7.25;7.25;;;;;24.65;46.80;101257.13;5075421;28;45156;-83
2022/07/14 05:38:01;;;;;;;;;10.50;10.00;;;;;24.87;46.48;101288.13;5093643;28;45744;-84
2022/07/14 05:40:26;;;;;;;;;10.75;10.50;;;;;24.97;46.95;101291.56;5093906;28;44958;-84
2022/07/14 05:42:51;;;;;;;;;10.00;9.25;;;;;24.84;47.19;101261.31;5093396;28;44947;-84
2022/07/14 05:45:17;;;;;;;;;8.50;8.25;;;;;24.92;46.07;101271.91;5091111;28;45295;-83
2022/07/14 05:47:42;;;;;;;;;7.50;7.50;;;;;24.96;46.51;101277.22;5092306;27;45276;-84
2022/07/14 05:50:09;;;;;;;;;8.00;8.00;;;;;25.11;46.71;101303.00;5093792;28;45083;-85
2022/07/14 05:52:37;;;;;;;;;11.00;9.75;;;;;25.00;46.87;101282.56;5093355;27;44993;-82
2022/07/14 05:55:02;;;;;;;;;9.00;9.00;;;;;25.04;47.33;101284.28;5093856;28;45228;-83
2022/07/14 05:57:28;;;;;;;;;8.50;8.25;;;;;25.11;46.68;101299.44;5092832;28;46981;-83
2022/07/14 05:59:53;;;;;;;;;9.25;9.25;;;;;25.09;47.06;101298.59;5093090;28;44980;-83
2022/07/14 06:02:18;;;;;;;;;8.25;8.00;;;;;25.05;46.84;101284.25;5092835;28;45152;-84
2022/07/14 06:04:44;;;;;;;;;9.00;8.00;;;;;25.03;47.38;101277.16;5090439;27;45016;-84
2022/07/14 06:07:09;;;;;;;;;9.00;8.50;;;;;25.19;47.33;101300.22;5092906;28;45536;-84
2022/07/14 06:09:36;;;;;;;;;8.50;8.00;;;;;25.24;47.10;101298.34;5074858;28;45033;-83
2022/07/14 06:12:06;;;;;;;;;10.00;9.00;;;;;25.28;46.75;101275.84;5093039;28;45011;-85
2022/07/14 06:14:32;;;;;;;;;9.25;9.00;;;;;25.55;46.24;101305.84;5092421;28;44894;-83
2022/07/14 06:16:57;;;;;;;;;7.75;7.25;;;;;25.59;46.32;101310.28;5092434;28;45321;-84
2022/07/14 06:19:23;;;;;;;;;9.00;8.25;;;;;25.44;46.30;101281.81;5072063;28;45653;-84
2022/07/14 06:21:48;;;;;;;;;11.25;11.00;;;;;25.59;45.76;101321.91;5092743;28;45528;-85
2022/07/14 06:24:13;;;;;;;;;8.00;7.50;;;;;25.48;46.55;101303.28;5074898;28;45220;-83
2022/07/14 06:26:39;;;;;;;;;8.50;8.50;;;;;25.50;46.21;101307.75;5092071;28;49165;-84
2022/07/14 06:29:05;;;;;;;;;9.00;9.00;;;;;25.63;46.61;101307.50;5092603;27;45531;-83
2022/07/14 06:31:35;;;;;;;;;8.50;8.00;;;;;25.64;46.61;101295.81;5073148;28;44903;-83
2022/07/14 06:34:01;;;;;;;;;9.25;8.50;;;;;25.68;46.20;101308.28;5072467;28;45124;-83
2022/07/14 06:36:26;;;;;;;;;10.25;9.00;;;;;25.77;46.53;101314.47;5092790;27;45988;-83
2022/07/14 06:38:52;;;;;;;;;9.00;9.00;;;;;25.71;46.56;101305.56;5092173;28;45103;-84
2022/07/14 06:41:20;;;;;;;;;8.50;8.50;;;;;25.81;45.78;101321.53;5093174;28;45155;-84
2022/07/14 06:43:46;;;;;;;;;10.00;10.00;;;;;25.83;46.31;101319.72;5092693;27;45031;-85
2022/07/14 06:46:15;;;;;;;;;10.00;9.75;;;;;25.71;45.83;101294.78;5092497;27;45415;-83
2022/07/14 06:48:41;;;;;;;;;8.25;8.25;;;;;25.66;46.05;101272.41;5073887;28;45225;-82
2022/07/14 06:51:07;;;;;;;;;11.25;10.25;;;;;25.89;45.54;101312.41;5092209;28;45010;-82
2022/07/14 06:53:33;;;;;;;;;11.00;10.25;;;;;25.76;45.89;101274.97;5092036;28;44949;-82
2022/07/14 06:55:58;;;;;;;;;10.50;10.50;;;;;25.86;46.33;101298.09;5091579;28;45806;-84
2022/07/14 06:58:23;;;;;;;;;8.25;8.25;;;;;25.83;46.02;101303.56;5092759;27;45147;-83
2022/07/14 07:00:49;;;;;;;;;11.00;10.00;;;;;25.70;46.57;101284.91;5091976;28;44967;-83
2022/07/14 07:03:14;;;;;;;;;10.25;9.25;;;;;25.79;46.51;101297.34;5073840;28;46629;-84
2022/07/14 07:08:23;;;;;;;;;8.25;8.25;;;;;25.86;46.62;101300.78;5092230;28;45172;-82
2022/07/14 07:10:50;;;;;;;;;9.00;9.00;;;;;25.95;46.34;101314.09;5092434;28;45111;-83
2022/07/14 07:13:16;;;;;;;;;10.00;10.00;;;;;25.92;45.61;101315.06;5092188;28;44941;-82
2022/07/14 07:15:41;;;;;;;;;8.00;8.00;;;;;25.85;46.11;101308.00;5091748;28;45522;-83
2022/07/14 07:18:07;;;;;;;;;10.75;10.25;;;;;26.02;45.97;101322.94;5091897;28;45374;-82
2022/07/14 07:20:34;;;;;;;;;10.50;9.75;;;;;25.97;46.47;101309.56;5092640;28;45182;-83
2022/07/14 07:23:00;;;;;;;;;10.00;9.75;;;;;26.05;45.72;101329.16;5091663;28;45027;-83
2022/07/14 07:25:25;;;;;;;;;9.00;9.00;;;;;25.86;45.38;101299.03;5091890;28;45460;-83
2022/07/14 07:27:50;;;;;;;;;10.25;10.25;;;;;26.01;45.76;101314.00;5091911;27;45053;-83
2022/07/14 07:30:16;;;;;;;;;9.25;8.75;;;;;25.78;45.78;101270.47;5088419;28;45085;-82
2022/07/14 07:32:41;;;;;;;;;11.25;9.25;;;;;26.01;45.20;101296.91;5072150;28;50397;-82
2022/07/14 07:35:06;;;;;;;;;9.50;9.50;;;;;26.10;45.51;101308.38;5091559;28;45692;-84
2022/07/14 07:37:32;;;;;;;;;6.00;6.00;;;;;26.18;45.89;101322.59;5090609;28;45144;-83
2022/07/14 07:39:58;;;;;;;;;10.00;10.00;;;;;26.10;45.86;101304.81;5090488;28;45147;-82
2022/07/14 07:42:23;;;;;;;;;11.25;10.75;;;;;26.25;46.16;101315.25;5073298;28;45230;-82
2022/07/14 07:44:49;;;;;;;;;10.25;10.25;;;;;26.17;45.21;101290.31;5091264;28;45762;-80
2022/07/14 07:47:15;;;;;;;;;10.00;10.00;;;;;26.19;45.65;101281.25;5090978;28;45028;-83
2022/07/14 07:49:41;;;;;;;;;10.75;10.75;;;;;26.33;45.40;101302.53;5073442;28;45077;-82
2022/07/14 07:52:06;;;;;;;;;12.25;12.25;;;;;26.31;45.31;101300.78;5073077;28;45111;-83
2022/07/14 07:54:32;;;;;;;;;10.50;9.50;;;;;26.45;45.29;101310.38;5089450;28;45422;-83
2022/07/14 07:56:59;;;;;;;;;9.50;9.50;;;;;26.40;44.87;101300.56;5091337;28;44989;-82
2022/07/14 07:59:25;;;;;;;;;11.00;10.25;;;;;26.54;44.99;101311.09;5071036;28;45394;-83
2022/07/14 08:01:51;;;;;;;;;10.50;10.25;;;;;26.35;44.00;101283.59;5090949;28;45044;-81
2022/07/14 08:04:16;;;;;;;;;9.00;8.00;;;;;26.52;44.88;101294.06;5088447;28;45418;-83
2022/07/14 08:06:41;;;;;;;;;9.00;8.00;;;;;26.52;44.44;101300.34;5091417;28;45030;-82
2022/07/14 08:09:11;;;;;;;;;9.00;9.00;;;;;26.51;44.57;101287.78;5091687;28;44943;-82
2022/07/14 08:11:38;;;;;;;;;11.00;10.50;;;;;26.42;44.08;101269.09;5072841;28;45270;-82
2022/07/14 08:14:03;;;;;;;;;9.00;9.00;;;;;26.52;45.01;101286.88;5089860;28;47200;-83
2022/07/14 08:16:29;;;;;;;;;10.75;10.00;;;;;26.49;44.60;101273.44;5091135;28;45050;-82
2022/07/14 08:18:54;;;;;;;;;9.75;9.75;;;;;26.64;44.17;101294.66;5072910;28;45066;-83
2022/07/14 08:21:20;;;;;;;;;9.75;9.75;;;;;26.51;44.00;101263.53;5091201;28;44990;-83
2022/07/14 08:23:45;;;;;;;;;9.75;9.00;;;;;26.72;44.11;101305.28;5090815;28;45465;-82
2022/07/14 08:26:13;;;;;;;;;10.25;9.00;;;;;26.68;44.25;101293.66;5091151;28;45013;-82
2022/07/14 08:28:38;;;;;;;;;11.00;11.00;;;;;26.74;44.06;101295.34;5072864;28;48694;-84
2022/07/14 08:31:04;;;;;;;;;8.50;8.50;;;;;26.60;44.33;101263.31;5072616;28;48894;-84
2022/07/14 08:33:29;;;;;;;;;9.25;9.00;;;;;26.78;43.87;101285.38;5071937;28;47131;-83
2022/07/14 08:35:54;;;;;;;;;9.00;9.00;;;;;26.78;44.00;101279.97;5072244;28;46285;-82
2022/07/14 08:38:20;;;;;;;;;10.00;9.00;;;;;26.85;43.38;101281.63;5089613;28;45125;-83
2022/07/14 08:40:46;;;;;;;;;12.50;12.00;;;;;26.92;43.67;101289.50;5072171;28;45245;-82
2022/07/14 08:43:13;;;;;;;;;9.50;9.50;;;;;26.85;43.46;101279.81;5090698;28;45222;-83
2022/07/14 08:45:47;;;;;;;;;8.00;8.00;;;;;26.83;43.20;101268.13;5072645;28;45662;-84
2022/07/14 08:48:14;;;;;;;;;9.50;8.75;;;;;26.89;43.19;101277.88;5090108;28;45107;-83
2022/07/14 08:50:40;;;;;;;;;8.00;8.00;;;;;26.86;42.93;101267.19;5073442;27;45148;-83
2022/07/14 08:53:07;;;;;;;;;8.75;8.00;;;;;26.98;43.02;101296.56;5093719;28;45439;-84
2022/07/14 08:55:33;;;;;;;;;9.75;8.50;;;;;27.02;42.91;101295.56;5075882;28;45257;-83
2022/07/14 08:57:59;;;;;;;;;8.00;7.00;;;;;26.80;42.39;101245.75;5076063;28;45065;-82
2022/07/14 09:00:25;;;;;;;;;9.25;8.50;;;;;27.10;42.09;101290.91;5094182;28;45147;-84
2022/07/14 09:02:53;;;;;;;;;8.25;8.25;;;;;27.04;42.60;101285.59;5075330;28;46991;-83
2022/07/14 09:05:18;;;;;;;;;6.25;6.25;;;;;27.11;42.52;101298.06;5094275;28;45348;-83
2022/07/14 09:07:44;;;;;;;;;9.25;9.25;;;;;27.13;42.22;101293.50;5075483;28;44978;-82
2022/07/14 09:10:10;;;;;;;;;8.25;8.25;;;;;27.19;42.15;101306.88;5093860;27;44939;-83
2022/07/14 09:12:36;;;;;;;;;10.25;10.25;;;;;27.11;42.52;101286.41;5075370;28;47665;-83
2022/07/14 09:17:57;;;;;;;;;8.00;7.25;;;;;27.24;42.10;101296.84;5093467;27;45065;-82
2022/07/14 09:20:25;;;;;;;;;7.50;7.50;;;;;27.16;41.48;101276.38;5075773;28;45083;-83
2022/07/14 09:22:59;;;;;;;;;7.00;7.00;;;;;27.26;41.70;101294.97;5093394;28;45733;-81
2022/07/14 09:25:26;;;;;;;;;8.00;7.00;;;;;27.20;41.22;101281.66;5088982;28;45216;-83
2022/07/14 09:27:53;;;;;;;;;7.00;7.00;;;;;27.27;40.92;101285.06;5093618;27;44953;-82
2022/07/14 09:30:19;;;;;;;;;7.75;7.00;;;;;27.22;41.42;101271.69;5093725;28;44980;-83
2022/07/14 09:33:00;;;;;;;;;7.50;7.00;;;;;27.38;40.82;101288.34;5073468;28;47272;-83
2022/07/14 09:35:46;;;;;;;;;8.00;8.00;;;;;27.45;40.58;101291.81;5075328;28;45013;-84
2022/07/14 09:38:23;;;;;;;;;8.75;8.00;;;;;27.45;41.08;101272.91;5092991;28;44961;-83
2022/07/14 09:40:49;;;;;;;;;7.25;7.25;;;;;27.59;40.53;101275.25;5093244;28;45036;-83
2022/07/14 09:43:15;;;;;;;;;7.50;6.00;;;;;27.70;40.16;101283.91;5093261;28;45473;-82
2022/07/14 09:45:44;;;;;;;;;6.25;6.25;;;;;27.65;40.21;101266.97;5074988;28;45449;-83
2022/07/14 09:48:14;;;;;;;;;7.25;7.25;;;;;27.70;39.64;101265.91;5074443;28;45089;-83
2022/07/14 09:50:44;;;;;;;;;5.50;5.50;;;;;27.86;39.86;101296.09;5074910;28;45195;-81
2022/07/14 09:53:29;;;;;;;;;6.50;6.50;;;;;27.93;39.66;101296.78;5074980;28;47310;-84
2022/07/14 09:55:58;;;;;;;;;5.25;5.25;;;;;27.93;39.10;101285.97;5075272;28;45509;-82
2022/07/14 09:58:25;;;;;;;;;6.00;6.00;;;;;27.96;38.71;101280.50;5092932;28;45119;-81
2022/07/14 10:00:56;;;;;;;;;6.00;6.00;;;;;28.02;38.98;101296.53;5093703;28;45214;-82
2022/07/14 10:03:22;;;;;;;;;5.75;5.75;;;;;28.05;38.55;101298.28;5090032;28;47121;-84
2022/07/14 10:05:49;;;;;;;;;7.25;6.25;;;;;28.05;38.12;101291.06;5074990;28;45483;-83
2022/07/14 10:08:16;;;;;;;;;8.00;7.50;;;;;28.05;38.59;101288.34;5074835;28;45116;-83
2022/07/14 10:10:41;;;;;;;;;7.00;7.00;;;;;28.06;38.16;101283.81;5074823;28;45014;-83
2022/07/14 10:13:07;;;;;;;;;6.75;6.75;;;;;27.92;38.39;101251.78;5092805;28;45761;-82
2022/07/14 10:15:32;;;;;;;;;6.00;6.00;;;;;28.17;37.93;101289.78;5074704;28;45106;-83
2022/07/14 10:18:01;;;;;;;;;7.75;7.75;;;;;28.08;38.11;101263.94;5092581;28;45060;-82
2022/07/14 10:20:27;;;;;;;;;7.75;7.75;;;;;28.21;38.56;101277.97;5093208;28;45095;-82
2022/07/14 10:22:55;;;;;;;;;6.75;6.75;;;;;28.21;38.15;101262.63;5092773;28;45668;-82
2022/07/14 10:25:21;;;;;;;;;6.00;6.00;;;;;28.16;38.00;101240.25;5072589;28;45526;-82
2022/07/14 10:27:48;;;;;;;;;7.00;7.00;;;;;28.23;37.98;101252.66;5093157;28;45135;-82
2022/07/14 10:30:14;;;;;;;;;5.25;5.25;;;;;28.37;38.11;101265.78;5092774;28;45026;-83
2022/07/14 10:33:01;;;;;;;;;7.00;6.50;;;;;28.59;37.50;101275.94;5091579;28;45716;-83
2022/07/14 10:35:54;;;;;;;;;6.25;6.25;;;;;28.62;37.70;101284.84;5074400;28;45331;-83
2022/07/14 10:38:35;;;;;;;;;7.25;6.75;;;;;28.33;37.38;101219.94;5093000;28;44918;-84
2022/07/14 10:41:14;;;;;;;;;7.00;7.00;;;;;28.69;37.20;101269.31;5074505;28;45202;-82
2022/07/14 10:44:10;;;;;;;;;6.00;6.00;;;;;28.60;37.04;101256.94;5073415;28;46968;-83
2022/07/14 10:46:38;;;;;;;;;6.75;6.75;;;;;28.83;36.96;101287.81;5055637;28;45313;-84
2022/07/14 10:49:06;;;;;;;;;6.00;6.00;;;;;28.89;36.59;101280.34;5092391;28;45028;-83
2022/07/14 10:51:32;;;;;;;;;6.50;6.50;;;;;28.88;36.62;101269.59;5092224;28;44937;-83
2022/07/14 10:54:00;;;;;;;;;6.50;5.75;;;;;29.05;36.67;101297.88;5074268;28;47578;-83
2022/07/14 10:56:27;;;;;;;;;6.00;6.00;;;;;29.00;36.39;101271.91;5092632;27;45301;-84
2022/07/14 10:59:26;;;;;;;;;6.00;6.00;;;;;29.22;36.42;101289.22;5092181;28;45118;-83
2022/07/14 11:02:10;;;;;;;;;7.75;7.75;;;;;29.33;35.76;101291.53;5092148;28;45286;-83
2022/07/14 11:05:03;;;;;;;;;5.00;5.00;;;;;29.38;35.57;101294.97;5091882;28;45386;-83
2022/07/14 11:07:47;;;;;;;;;7.00;7.00;;;;;29.41;35.66;101283.13;5091989;28;44997;-83
2022/07/14 11:10:19;;;;;;;;;5.00;5.00;;;;;29.48;35.67;101295.53;5074195;28;44974;-83
2022/07/14 11:12:59;;;;;;;;;6.00;6.00;;;;;29.33;35.27;101247.34;5092492;27;45088;-83
2022/07/14 11:15:38;;;;;;;;;5.75;5.50;;;;;29.51;35.81;101266.53;5073668;28;46835;-82
2022/07/14 11:18:21;;;;;;;;;7.00;6.75;;;;;29.47;35.07;101254.03;5091185;28;44937;-84
2022/07/14 11:20:58;;;;;;;;;3.75;3.75;;;;;29.68;35.52;101279.47;5070759;28;45245;-82
2022/07/14 11:23:29;;;;;;;;;4.00;4.00;;;;;29.59;34.95;101254.53;5092038;28;45143;-84
2022/07/14 11:25:57;;;;;;;;;4.50;4.50;;;;;29.64;34.51;101264.28;5092084;28;45668;-83
2022/07/14 11:28:31;;;;;;;;;5.00;4.25;;;;;29.77;34.59;101279.16;5090410;28;45351;-83
2022/07/14 11:31:09;;;;;;;;;3.00;3.00;;;;;29.83;33.76;101275.31;5073899;28;44960;-84
2022/07/14 11:33:35;;;;;;;;;4.25;3.75;;;;;29.88;34.61;101277.88;5091009;27;45136;-84
2022/07/14 11:36:17;;;;;;;;;5.25;5.25;;;;;29.79;34.81;101249.28;5091793;28;45664;-83